Time;durP1;ratioP1;P1;durP2;ratioP2;P2;SDS_P1;SDS_P2;PMS_P1;PMS_P2;Temp;Humidity;BMP_temperature;BMP_pressure;BME280_temperature;BME280_humidity;BME280_pressure;Samples;Min_cycle;Max_cycle;Signal;HPM_P1;HPM_P2
2022/01/21 00:01:58;;;;;;;3.23;2.00;;;-1.60;99.90;;;;;;5028667;28;20545;-52
2022/01/21 00:04:25;;;;;;;3.90;2.00;;;-1.60;99.90;;;;;;5030837;28;20867;-52
2022/01/21 00:06:52;;;;;;;4.10;2.03;;;-1.60;99.90;;;;;;5027408;28;20660;-51
2022/01/21 00:09:19;;;;;;;4.53;2.10;;;-1.60;99.90;;;;;;5033132;28;20552;-51
2022/01/21 00:11:46;;;;;;;7.50;1.87;;;-1.60;99.90;;;;;;5032323;28;20982;-51
2022/01/21 00:14:12;;;;;;;5.03;1.57;;;-1.70;99.90;;;;;;5031407;28;20955;-52
2022/01/21 00:16:39;;;;;;;7.20;1.80;;;-1.60;99.90;;;;;;5033343;28;21082;-51
2022/01/21 00:19:10;;;;;;;4.50;1.70;;;-1.60;99.90;;;;;;5033303;28;20473;-53
2022/01/21 00:30:14;;;;;;;13.73;2.80;;;-1.70;99.90;;;;;;5034899;28;20453;-51
2022/01/21 00:32:41;;;;;;;2.27;1.63;;;-1.80;99.90;;;;;;5027795;28;20470;-52
2022/01/21 00:35:08;;;;;;;4.70;2.20;;;-1.80;99.90;;;;;;5028897;28;20471;-51
2022/01/21 00:37:36;;;;;;;8.70;1.90;;;-1.80;99.90;;;;;;5033662;28;21087;-52
2022/01/21 00:40:05;;;;;;;5.17;2.00;;;-1.90;99.90;;;;;;5028485;28;20505;-51
2022/01/21 00:42:48;;;;;;;1.73;1.63;;;-1.90;99.90;;;;;;5035965;28;20502;-51
2022/01/21 00:45:17;;;;;;;2.00;1.80;;;-1.90;99.90;;;;;;5032525;28;20541;-52
2022/01/21 00:47:45;;;;;;;1.90;1.70;;;-1.90;99.90;;;;;;5029461;28;20442;-51
2022/01/21 00:50:12;;;;;;;6.10;1.53;;;-1.90;99.90;;;;;;5031886;28;20530;-52
2022/01/21 00:52:39;;;;;;;3.13;1.73;;;-1.80;99.90;;;;;;5031444;28;20992;-51
2022/01/21 00:55:09;;;;;;;2.80;1.90;;;-1.90;99.90;;;;;;5030185;28;20554;-52
2022/01/21 00:57:35;;;;;;;5.30;1.97;;;-1.80;99.90;;;;;;5035256;28;20578;-51
2022/01/21 01:00:03;;;;;;;2.30;1.50;;;-1.80;99.90;;;;;;5034788;28;21018;-51
2022/01/21 01:02:29;;;;;;;3.10;2.00;;;-1.80;99.90;;;;;;5028513;28;20925;-52
2022/01/21 01:04:56;;;;;;;8.03;2.77;;;-1.80;99.90;;;;;;5022084;28;20448;-51
2022/01/21 01:07:23;;;;;;;2.40;1.80;;;-1.80;99.90;;;;;;5030179;28;20557;-52
2022/01/21 01:09:53;;;;;;;3.93;1.77;;;-1.90;99.90;;;;;;5035083;28;20501;-53
2022/01/21 01:12:31;;;;;;;5.37;1.70;;;-1.80;99.90;;;;;;5033769;28;20455;-51
2022/01/21 01:20:25;;;;;;;2.20;1.30;;;-1.80;99.90;;;;;;5043517;28;20480;-52
2022/01/21 01:22:56;;;;;;;6.70;2.23;;;-1.80;99.90;;;;;;5013869;28;20530;-51
2022/01/21 01:28:09;;;;;;;2.93;1.70;;;-1.90;99.90;;;;;;5034746;28;20461;-52
2022/01/21 01:30:36;;;;;;;3.23;1.63;;;-1.90;99.90;;;;;;5034912;28;20558;-53
2022/01/21 01:33:07;;;;;;;3.90;1.40;;;-2.00;99.90;;;;;;5029580;28;20507;-52
2022/01/21 01:35:33;;;;;;;7.60;2.20;;;-2.00;99.90;;;;;;5021738;28;20483;-52
2022/01/21 01:40:51;;;;;;;9.67;3.10;;;-2.00;99.90;;;;;;4995587;28;20442;-51
2022/01/21 01:51:30;;;;;;;3.17;2.07;;;-2.00;99.90;;;;;;5032631;28;20508;-51
2022/01/21 01:53:59;;;;;;;2.17;1.80;;;-2.00;99.90;;;;;;5030675;28;20828;-53
2022/01/21 01:56:29;;;;;;;2.53;1.57;;;-2.00;99.90;;;;;;5032044;28;20593;-52
2022/01/21 01:58:57;;;;;;;2.20;1.60;;;-2.00;99.90;;;;;;5027612;28;20545;-51
2022/01/21 02:01:23;;;;;;;3.00;1.63;;;-2.00;99.90;;;;;;5033357;28;20550;-51
2022/01/21 02:03:50;;;;;;;6.40;2.17;;;-2.10;99.90;;;;;;5030861;28;20541;-52
2022/01/21 02:06:16;;;;;;;2.80;1.67;;;-2.10;99.90;;;;;;5032091;28;21149;-53
2022/01/21 02:08:43;;;;;;;3.97;2.07;;;-2.10;99.90;;;;;;5020043;28;20482;-53
2022/01/21 02:11:10;;;;;;;5.70;2.17;;;-2.20;99.90;;;;;;5033317;28;20551;-52
2022/01/21 02:13:43;;;;;;;4.17;1.70;;;-2.10;99.90;;;;;;5028834;28;20541;-51
2022/01/21 02:16:29;;;;;;;2.03;1.60;;;-2.10;99.90;;;;;;5029324;28;20482;-52
2022/01/21 02:21:45;;;;;;;8.53;1.83;;;-2.10;99.90;;;;;;5026080;28;20493;-52
2022/01/21 02:24:18;;;;;;;3.27;1.67;;;-2.10;99.90;;;;;;5024695;28;20455;-52
2022/01/21 02:26:46;;;;;;;3.53;1.43;;;-2.10;99.90;;;;;;5036735;28;20571;-52
2022/01/21 02:29:15;;;;;;;4.10;2.00;;;-2.10;99.90;;;;;;5016309;28;20887;-52
2022/01/21 02:31:41;;;;;;;3.33;1.70;;;-2.10;99.90;;;;;;5029445;28;21158;-52
2022/01/21 02:34:09;;;;;;;3.37;1.90;;;-2.10;99.90;;;;;;5030228;28;20546;-52
2022/01/21 02:36:36;;;;;;;2.90;1.50;;;-2.20;99.90;;;;;;5029530;28;20499;-51
2022/01/21 02:39:05;;;;;;;3.17;1.73;;;-2.20;99.90;;;;;;5029867;28;20491;-52
2022/01/21 02:41:32;;;;;;;4.07;2.03;;;-2.10;99.90;;;;;;5030924;28;20532;-51
2022/01/21 02:43:58;;;;;;;1.60;1.30;;;-2.10;99.90;;;;;;5027288;28;20509;-52
2022/01/21 02:46:26;;;;;;;6.87;1.90;;;-2.20;99.90;;;;;;5023913;28;21030;-51
2022/01/21 02:48:53;;;;;;;3.53;1.60;;;-2.20;99.90;;;;;;5024083;28;20462;-51
2022/01/21 02:51:20;;;;;;;4.70;1.90;;;-2.20;99.90;;;;;;5025075;28;20499;-51
2022/01/21 02:54:05;;;;;;;6.77;1.80;;;-2.20;99.90;;;;;;5014909;28;20490;-51
2022/01/21 02:56:34;;;;;;;3.83;1.90;;;-2.30;99.90;;;;;;5028700;28;20494;-53
2022/01/21 02:59:01;;;;;;;2.03;1.70;;;-2.30;99.90;;;;;;5030119;28;20510;-51
2022/01/21 03:01:27;;;;;;;6.97;1.70;;;-2.30;99.90;;;;;;5028509;28;20498;-51
2022/01/21 03:03:55;;;;;;;4.73;2.20;;;-2.20;99.90;;;;;;5031535;28;20876;-52
2022/01/21 03:06:23;;;;;;;2.00;1.60;;;-2.20;99.90;;;;;;5031725;28;20537;-51
2022/01/21 03:08:52;;;;;;;3.57;2.10;;;-2.20;99.90;;;;;;5049009;28;20520;-52
2022/01/21 03:11:19;;;;;;;1.70;1.60;;;-2.20;99.90;;;;;;5033415;28;20471;-52
2022/01/21 03:13:47;;;;;;;3.90;1.93;;;-2.20;99.90;;;;;;5016512;28;20478;-53
2022/01/21 03:16:14;;;;;;;2.90;2.03;;;-2.30;99.90;;;;;;5031235;28;20525;-53
2022/01/21 03:18:40;;;;;;;4.10;1.80;;;-2.30;99.90;;;;;;5045160;28;20517;-52
2022/01/21 03:21:10;;;;;;;3.33;2.03;;;-2.30;99.90;;;;;;5037536;28;20596;-53
2022/01/21 03:23:36;;;;;;;3.90;1.80;;;-2.30;99.90;;;;;;5020089;28;20565;-52
2022/01/21 03:26:03;;;;;;;2.90;1.57;;;-2.40;99.90;;;;;;5029011;28;20486;-52
2022/01/21 03:28:30;;;;;;;3.77;2.07;;;-2.40;99.90;;;;;;5027709;28;20450;-52
2022/01/21 03:30:58;;;;;;;4.57;1.80;;;-2.40;99.90;;;;;;5028418;28;20495;-51
2022/01/21 03:33:25;;;;;;;3.43;2.30;;;-2.40;99.90;;;;;;5033315;28;20604;-51
2022/01/21 03:35:53;;;;;;;1.93;1.50;;;-2.40;99.90;;;;;;5033780;28;20490;-52
2022/01/21 03:38:21;;;;;;;3.93;1.50;;;-2.40;99.90;;;;;;5034255;28;20841;-52
2022/01/21 03:40:47;;;;;;;8.53;2.07;;;-2.50;99.90;;;;;;5035001;28;20472;-51
2022/01/21 03:43:15;;;;;;;5.17;1.63;;;-2.40;99.90;;;;;;5031398;28;20482;-52
2022/01/21 03:45:41;;;;;;;8.90;1.80;;;-2.40;99.90;;;;;;5034379;28;20482;-53
2022/01/21 03:48:09;;;;;;;2.30;1.53;;;-2.50;99.90;;;;;;5031308;28;20979;-52
2022/01/21 03:50:36;;;;;;;3.70;1.53;;;-2.50;99.90;;;;;;5033913;28;20467;-52
2022/01/21 03:53:04;;;;;;;2.63;1.60;;;-2.60;99.90;;;;;;5033835;28;20499;-52
2022/01/21 03:55:31;;;;;;;3.93;1.90;;;-2.60;99.90;;;;;;5033621;28;20572;-52
2022/01/21 03:57:59;;;;;;;2.63;1.90;;;-2.60;99.90;;;;;;5026993;28;20873;-51
2022/01/21 04:00:28;;;;;;;5.47;2.00;;;-2.70;99.90;;;;;;5032112;28;20494;-52
2022/01/21 04:02:54;;;;;;;5.13;2.30;;;-2.70;99.90;;;;;;5018949;28;20532;-52
2022/01/21 04:05:22;;;;;;;3.87;1.70;;;-2.70;99.90;;;;;;5036592;28;20493;-52
2022/01/21 04:07:49;;;;;;;10.30;2.03;;;-2.70;99.90;;;;;;5044791;28;20550;-52
2022/01/21 04:10:16;;;;;;;3.00;2.03;;;-2.70;99.90;;;;;;5035207;28;20557;-52
2022/01/21 04:12:42;;;;;;;6.27;2.27;;;-2.60;99.90;;;;;;5020650;28;20827;-53
2022/01/21 04:15:10;;;;;;;4.43;2.20;;;-2.60;99.90;;;;;;5036169;28;20565;-53
2022/01/21 04:17:36;;;;;;;3.57;1.60;;;-2.70;99.90;;;;;;5030783;28;20541;-53
2022/01/21 04:20:04;;;;;;;5.10;1.80;;;-2.70;99.90;;;;;;5030705;28;20956;-52
2022/01/21 04:22:32;;;;;;;1.53;1.43;;;-2.80;99.90;;;;;;5023295;28;20856;-52
2022/01/21 04:25:00;;;;;;;2.73;1.57;;;-2.80;99.90;;;;;;5036878;28;20466;-52
2022/01/21 04:27:27;;;;;;;3.97;1.60;;;-2.80;99.90;;;;;;5032985;28;20493;-52
2022/01/21 04:29:53;;;;;;;4.20;1.77;;;-2.80;99.90;;;;;;5032860;28;20570;-53
2022/01/21 04:32:20;;;;;;;5.53;2.00;;;-2.80;99.90;;;;;;5033363;28;20475;-52
2022/01/21 04:34:46;;;;;;;2.70;2.17;;;-2.90;99.90;;;;;;5034532;28;20478;-53
2022/01/21 04:37:16;;;;;;;1.70;1.47;;;-2.90;99.90;;;;;;5034891;28;20510;-53
2022/01/21 04:39:49;;;;;;;2.50;1.80;;;-2.90;99.90;;;;;;5035194;28;20994;-52
2022/01/21 04:47:41;;;;;;;4.47;1.80;;;-2.90;99.90;;;;;;5034946;28;20450;-51
2022/01/21 04:50:12;;;;;;;2.87;1.90;;;-2.90;99.90;;;;;;5033544;28;20487;-52
2022/01/21 04:52:40;;;;;;;2.13;1.90;;;-3.00;99.90;;;;;;5030903;28;20467;-52
2022/01/21 04:55:09;;;;;;;13.10;2.10;;;-3.00;99.90;;;;;;5029563;28;20560;-52
2022/01/21 04:57:37;;;;;;;3.00;1.63;;;-3.00;99.90;;;;;;5017439;28;20487;-51
2022/01/21 05:00:05;;;;;;;8.90;3.40;;;-3.10;99.90;;;;;;5037677;28;20501;-53
2022/01/21 05:02:34;;;;;;;3.23;1.93;;;-3.10;99.90;;;;;;5015125;28;20491;-52
2022/01/21 05:05:00;;;;;;;3.47;1.90;;;-3.10;99.90;;;;;;5032801;28;20470;-52
2022/01/21 05:07:28;;;;;;;1.83;1.73;;;-3.20;99.90;;;;;;5021145;28;20490;-51
2022/01/21 05:09:55;;;;;;;6.90;1.77;;;-3.20;99.90;;;;;;5035108;28;20541;-53
2022/01/21 05:12:25;;;;;;;5.77;2.00;;;-3.20;99.90;;;;;;5021737;28;20534;-53
2022/01/21 05:15:07;;;;;;;2.60;1.50;;;-3.20;99.90;;;;;;5022420;28;20957;-52
2022/01/21 05:17:41;;;;;;;4.30;1.60;;;-3.20;99.90;;;;;;5036904;28;20465;-52
2022/01/21 05:20:09;;;;;;;3.77;2.20;;;-3.20;99.90;;;;;;5032467;28;20459;-51
2022/01/21 05:22:36;;;;;;;2.03;1.87;;;-3.20;99.90;;;;;;5033287;28;20497;-52
2022/01/21 05:25:03;;;;;;;9.33;4.37;;;-3.20;99.90;;;;;;5037144;28;20525;-52
2022/01/21 05:27:31;;;;;;;9.67;4.93;;;-3.10;99.90;;;;;;5040942;28;20561;-52
2022/01/21 05:29:58;;;;;;;27.37;14.33;;;-3.10;99.90;;;;;;5025850;28;20483;-51
2022/01/21 05:32:24;;;;;;;22.93;12.40;;;-3.10;99.90;;;;;;5027873;28;20494;-53
2022/01/21 05:34:51;;;;;;;59.87;31.50;;;-3.20;99.90;;;;;;5031798;28;21093;-51
2022/01/21 05:37:17;;;;;;;37.67;20.90;;;-3.20;99.90;;;;;;5033298;28;20566;-52
2022/01/21 05:39:45;;;;;;;42.90;20.50;;;-3.20;99.90;;;;;;5027135;28;20871;-52
2022/01/21 05:42:12;;;;;;;20.23;10.40;;;-3.30;99.90;;;;;;5028648;28;20479;-52
2022/01/21 05:47:24;;;;;;;10.83;5.73;;;-3.30;99.90;;;;;;5023577;28;20474;-52
2022/01/21 05:49:51;;;;;;;6.50;5.53;;;-3.30;99.90;;;;;;5026860;28;20828;-51
2022/01/21 05:52:19;;;;;;;7.10;3.73;;;-3.40;99.90;;;;;;5028912;28;21015;-53
2022/01/21 05:54:46;;;;;;;5.80;4.20;;;-3.40;99.90;;;;;;5026994;28;20458;-52
2022/01/21 05:57:16;;;;;;;8.27;3.77;;;-3.40;99.90;;;;;;5041933;22;20490;-47
2022/01/21 05:59:45;;;;;;;10.30;2.87;;;-3.40;99.90;;;;;;5025868;28;20490;-46
2022/01/21 06:02:12;;;;;;;4.97;4.07;;;-3.40;99.90;;;;;;5027312;28;20459;-46
2022/01/21 06:04:43;;;;;;;5.93;3.67;;;-3.40;99.90;;;;;;5026795;28;20466;-47
2022/01/21 06:07:10;;;;;;;3.23;2.97;;;-3.40;99.90;;;;;;5012521;28;20496;-47
2022/01/21 06:09:38;;;;;;;4.57;2.90;;;-3.40;99.90;;;;;;5016403;28;20440;-47
2022/01/21 06:12:05;;;;;;;5.07;3.00;;;-3.50;99.90;;;;;;5008007;28;20470;-47
2022/01/21 06:14:32;;;;;;;3.53;2.17;;;-3.50;99.90;;;;;;5010146;28;20555;-47
2022/01/21 06:17:00;;;;;;;2.07;1.87;;;-3.40;99.90;;;;;;5008591;28;20483;-46
2022/01/21 06:19:27;;;;;;;2.60;2.00;;;-3.40;99.90;;;;;;5005507;28;20949;-47
2022/01/21 06:21:53;;;;;;;7.80;2.70;;;-3.50;99.90;;;;;;5010193;28;20494;-47
2022/01/21 06:24:20;;;;;;;4.43;1.73;;;-3.50;99.90;;;;;;5009324;28;20491;-47
2022/01/21 06:26:49;;;;;;;5.73;2.87;;;-3.50;99.90;;;;;;5010493;28;20511;-48
2022/01/21 06:29:16;;;;;;;3.03;2.10;;;-3.30;99.90;;;;;;5008507;28;20517;-48
2022/01/21 06:31:42;;;;;;;4.90;2.20;;;-3.40;99.90;;;;;;5013515;28;20517;-48
2022/01/21 06:34:10;;;;;;;5.90;2.17;;;-3.40;99.90;;;;;;5016825;28;20530;-48
2022/01/21 06:36:37;;;;;;;6.80;2.27;;;-3.50;99.90;;;;;;5013232;28;20480;-52
2022/01/21 06:39:03;;;;;;;2.50;2.00;;;-3.50;99.90;;;;;;5012399;28;20523;-51
2022/01/21 06:41:30;;;;;;;4.73;2.70;;;-3.50;99.90;;;;;;5012891;28;20546;-52
2022/01/21 06:44:01;;;;;;;2.37;2.17;;;-3.50;99.90;;;;;;5010083;28;20487;-51
2022/01/21 06:46:27;;;;;;;2.93;2.40;;;-3.50;99.90;;;;;;5003007;28;21003;-51
2022/01/21 06:48:54;;;;;;;4.47;2.27;;;-3.50;99.90;;;;;;5010022;28;20542;-51
2022/01/21 06:51:22;;;;;;;2.27;1.87;;;-3.60;99.90;;;;;;5010365;28;20496;-51
2022/01/21 06:53:48;;;;;;;8.40;2.37;;;-3.60;99.90;;;;;;5010732;28;20566;-51
2022/01/21 06:56:15;;;;;;;7.70;2.30;;;-3.60;99.90;;;;;;5010344;28;20515;-50
2022/01/21 06:58:42;;;;;;;7.50;2.07;;;-3.60;99.90;;;;;;5011205;28;20506;-51
2022/01/21 07:01:08;;;;;;;6.23;1.90;;;-3.60;99.90;;;;;;5006858;28;20535;-50
2022/01/21 07:03:35;;;;;;;4.80;2.53;;;-3.50;99.90;;;;;;5009115;28;20463;-51
2022/01/21 07:06:02;;;;;;;5.60;2.60;;;-3.60;99.90;;;;;;5011603;28;20479;-51
2022/01/21 07:08:33;;;;;;;4.60;2.47;;;-3.50;99.90;;;;;;5010637;28;20541;-51
2022/01/21 07:11:00;;;;;;;8.85;3.05;;;-3.60;99.90;;;;;;5006428;28;20500;-50
2022/01/21 07:13:27;;;;;;;5.77;2.53;;;-3.60;99.90;;;;;;5007401;28;20549;-49
2022/01/21 07:15:53;;;;;;;6.80;2.10;;;-3.60;99.90;;;;;;5001002;28;20494;-51
2022/01/21 07:18:20;;;;;;;6.93;2.53;;;-3.60;99.90;;;;;;4997704;28;20554;-51
2022/01/21 07:20:46;;;;;;;6.90;2.50;;;-3.50;99.90;;;;;;5001788;28;20515;-51
2022/01/21 07:23:13;;;;;;;4.47;2.13;;;-3.50;99.90;;;;;;5019413;28;20495;-51
2022/01/21 07:25:41;;;;;;;4.70;2.43;;;-3.40;99.90;;;;;;5016549;28;20471;-51
2022/01/21 07:28:08;;;;;;;5.53;2.97;;;-3.40;99.90;;;;;;5011312;28;20942;-51
2022/01/21 07:30:35;;;;;;;5.23;2.47;;;-3.50;99.90;;;;;;5010654;28;20478;-51
2022/01/21 07:33:02;;;;;;;5.53;2.80;;;-3.40;99.90;;;;;;5013215;28;20518;-51
2022/01/21 07:35:29;;;;;;;3.57;1.87;;;-3.40;99.90;;;;;;5018021;28;20495;-51
2022/01/21 07:37:56;;;;;;;5.20;2.57;;;-3.40;99.90;;;;;;5013018;28;20471;-51
2022/01/21 07:40:22;;;;;;;4.83;2.63;;;-3.40;99.90;;;;;;5013543;28;20622;-51
2022/01/21 07:42:50;;;;;;;10.27;5.03;;;-3.40;99.90;;;;;;5015542;28;20491;-51
2022/01/21 07:45:17;;;;;;;5.83;3.50;;;-3.30;99.90;;;;;;5011541;28;21869;-51
2022/01/21 07:47:43;;;;;;;6.73;3.50;;;-3.20;99.90;;;;;;5008227;28;20491;-50
2022/01/21 07:50:10;;;;;;;12.07;4.00;;;-3.00;99.90;;;;;;5012009;28;20464;-51
2022/01/21 07:52:37;;;;;;;13.80;5.60;;;-2.80;99.90;;;;;;5016801;28;20551;-50
2022/01/21 07:55:04;;;;;;;10.13;4.80;;;-2.70;99.90;;;;;;5018928;28;20463;-55
2022/01/21 07:57:31;;;;;;;16.57;4.80;;;-2.70;99.90;;;;;;5017693;28;20499;-46
2022/01/21 07:59:59;;;;;;;12.23;5.40;;;-2.70;99.90;;;;;;5015346;28;20566;-47
2022/01/21 08:02:27;;;;;;;9.50;4.90;;;-2.80;99.90;;;;;;5017049;28;20502;-46
2022/01/21 08:04:55;;;;;;;8.83;3.50;;;-2.70;99.90;;;;;;5014508;28;20556;-45
2022/01/21 08:07:21;;;;;;;4.77;2.63;;;-2.80;99.90;;;;;;5013938;28;20557;-46
2022/01/21 08:09:49;;;;;;;10.20;4.90;;;-2.70;99.90;;;;;;5006024;28;20496;-46
2022/01/21 08:12:16;;;;;;;7.80;4.13;;;-2.70;99.90;;;;;;5013484;28;20463;-48
2022/01/21 08:14:43;;;;;;;6.20;4.10;;;-2.70;99.90;;;;;;5011536;28;20464;-46
2022/01/21 08:17:11;;;;;;;8.30;3.40;;;-2.60;99.90;;;;;;5015475;28;20582;-46
2022/01/21 08:19:38;;;;;;;4.93;2.53;;;-2.40;99.90;;;;;;5008512;28;20571;-46
2022/01/21 08:22:05;;;;;;;4.00;2.23;;;-2.40;99.90;;;;;;5009697;28;20499;-46
2022/01/21 08:24:31;;;;;;;8.33;3.50;;;-2.40;99.90;;;;;;5008007;28;20919;-46
2022/01/21 08:26:58;;;;;;;7.50;3.30;;;-2.40;99.90;;;;;;5014098;28;20921;-47
2022/01/21 08:29:24;;;;;;;18.43;9.33;;;-2.40;99.90;;;;;;5018238;28;20892;-47
2022/01/21 08:31:51;;;;;;;37.20;20.80;;;-2.00;99.90;;;;;;5006060;28;20517;-46
2022/01/21 08:34:19;;;;;;;42.97;25.40;;;-1.80;99.90;;;;;;4999328;28;20479;-47
2022/01/21 08:36:46;;;;;;;10.03;4.43;;;-1.40;99.90;;;;;;5005388;28;20485;-47
2022/01/21 08:39:13;;;;;;;6.13;2.90;;;-1.00;89.30;;;;;;5008799;28;20510;-48
2022/01/21 08:41:40;;;;;;;15.97;10.37;;;-0.70;34.50;;;;;;5009671;28;20965;-46
2022/01/21 08:44:06;;;;;;;11.03;2.80;;;-0.10;54.70;;;;;;5013390;28;20503;-46
2022/01/21 08:46:33;;;;;;;6.63;2.53;;;-0.40;45.10;;;;;;5007465;28;20865;-46
2022/01/21 08:49:06;;;;;;;6.70;2.93;;;0.10;55.20;;;;;;5004248;28;20499;-48
2022/01/21 08:51:41;;;;;;;5.53;3.10;;;0.30;64.10;;;;;;5010685;28;20498;-47
2022/01/21 08:54:08;;;;;;;8.63;2.83;;;0.80;87.20;;;;;;5012934;28;20494;-47
2022/01/21 08:56:34;;;;;;;8.70;3.50;;;0.50;91.90;;;;;;5011377;28;20585;-47
2022/01/21 08:59:01;;;;;;;14.30;7.50;;;0.60;82.80;;;;;;5002579;28;20615;-47
2022/01/21 09:01:27;;;;;;;15.97;5.00;;;0.60;85.90;;;;;;5007661;28;20922;-47
2022/01/21 09:03:54;;;;;;;7.33;3.17;;;1.00;92.80;;;;;;5010608;28;20499;-46
2022/01/21 09:06:23;;;;;;;12.40;3.27;;;1.40;99.90;;;;;;5005292;28;20531;-48
2022/01/21 09:08:51;;;;;;;4.50;3.20;;;1.50;99.90;;;;;;5011914;28;20452;-47
2022/01/21 09:11:17;;;;;;;6.30;2.83;;;1.80;99.90;;;;;;5011996;28;20529;-47
2022/01/21 09:13:44;;;;;;;13.83;4.40;;;1.30;99.90;;;;;;5011437;28;20503;-47
2022/01/21 09:16:11;;;;;;;8.73;4.10;;;1.40;99.90;;;;;;5009455;28;20587;-47
2022/01/21 09:18:49;;;;;;;12.53;3.80;;;1.00;94.80;;;;;;5010699;28;20527;-47
2022/01/21 09:21:18;;;;;;;6.23;3.23;;;0.50;72.60;;;;;;5011353;28;20559;-47
2022/01/21 09:23:47;;;;;;;7.57;2.77;;;0.30;54.10;;;;;;5011843;28;20488;-47
2022/01/21 09:26:16;;;;;;;5.97;2.50;;;0.10;38.60;;;;;;5007606;28;20938;-47
2022/01/21 09:28:43;;;;;;;7.70;3.47;;;0.10;39.80;;;;;;5012018;28;20500;-47
2022/01/21 09:31:09;;;;;;;11.70;3.70;;;0.10;46.40;;;;;;5003316;28;20491;-46
2022/01/21 09:33:36;;;;;;;5.87;2.90;;;0.10;35.40;;;;;;5003245;28;20498;-46
2022/01/21 09:36:03;;;;;;;10.40;3.13;;;-0.20;81.70;;;;;;5013132;28;20498;-46
2022/01/21 09:38:29;;;;;;;5.63;2.80;;;-0.10;99.90;;;;;;5005825;28;20981;-46
2022/01/21 09:40:57;;;;;;;10.30;3.17;;;0.00;20.90;;;;;;5011309;28;20926;-46
2022/01/21 09:43:25;;;;;;;5.97;2.80;;;0.20;26.30;;;;;;5011052;28;20495;-47
2022/01/21 09:45:54;;;;;;;16.23;3.33;;;0.40;23.90;;;;;;5002483;28;20480;-46
2022/01/21 09:48:23;;;;;;;12.20;2.83;;;0.60;38.80;;;;;;5002669;28;20467;-47
2022/01/21 09:50:52;;;;;;;10.07;2.93;;;0.80;49.80;;;;;;5009832;28;20538;-48
2022/01/21 09:53:24;;;;;;;11.47;2.70;;;0.90;46.90;;;;;;5011372;28;20491;-47
2022/01/21 09:55:51;;;;;;;7.60;2.60;;;0.90;42.10;;;;;;5003391;28;20592;-46
2022/01/21 09:58:19;;;;;;;7.93;2.20;;;1.30;61.10;;;;;;5003135;28;20479;-46
2022/01/21 10:00:47;;;;;;;7.03;3.37;;;2.00;74.50;;;;;;5004759;28;20575;-47
2022/01/21 10:03:15;;;;;;;9.30;3.40;;;2.50;99.90;;;;;;5007654;28;20471;-46
2022/01/21 10:05:45;;;;;;;9.73;3.30;;;2.50;99.90;;;;;;5010837;28;20578;-46
2022/01/21 10:08:12;;;;;;;7.13;2.67;;;3.90;99.90;;;;;;5003219;28;20502;-47
2022/01/21 10:10:41;;;;;;;11.03;3.00;;;3.90;99.90;;;;;;5011486;28;20887;-47
2022/01/21 10:13:08;;;;;;;11.10;3.17;;;4.90;99.90;;;;;;5011838;28;20874;-46
2022/01/21 10:15:37;;;;;;;14.27;3.07;;;5.30;99.90;;;;;;5011644;28;20484;-46
2022/01/21 10:18:08;;;;;;;13.70;3.17;;;6.50;99.90;;;;;;5008601;28;21416;-48
2022/01/21 10:20:35;;;;;;;6.70;2.60;;;6.70;99.90;;;;;;5011170;28;20523;-46
2022/01/21 10:23:04;;;;;;;6.63;2.80;;;6.30;99.90;;;;;;5013906;28;20530;-47
2022/01/21 10:25:32;;;;;;;5.80;2.30;;;6.00;99.90;;;;;;5012292;28;20494;-47
2022/01/21 10:28:11;;;;;;;8.27;3.40;;;6.20;99.90;;;;;;5012237;28;20484;-48
2022/01/21 10:30:38;;;;;;;5.93;2.87;;;4.70;99.90;;;;;;5001804;28;20486;-47
2022/01/21 10:33:20;;;;;;;11.63;3.00;;;4.30;99.90;;;;;;5003347;28;20832;-48
2022/01/21 10:35:49;;;;;;;8.93;3.03;;;3.80;99.90;;;;;;5007285;28;20937;-48
2022/01/21 10:38:17;;;;;;;3.60;2.53;;;3.10;99.90;;;;;;5007886;28;20467;-47
2022/01/21 10:40:45;;;;;;;6.30;3.10;;;3.10;99.90;;;;;;5008840;28;21030;-47
2022/01/21 10:43:13;;;;;;;16.63;3.60;;;3.00;99.90;;;;;;5002914;28;20467;-46
2022/01/21 10:45:49;;;;;;;9.73;3.27;;;3.40;99.90;;;;;;5004445;28;20486;-46
2022/01/21 10:48:17;;;;;;;15.20;4.87;;;3.20;99.90;;;;;;5008503;28;20491;-47
2022/01/21 10:50:44;;;;;;;8.83;3.20;;;3.10;99.90;;;;;;5008029;28;20499;-48
2022/01/21 10:53:26;;;;;;;15.53;7.20;;;2.60;80.90;;;;;;5010747;28;20482;-47
2022/01/21 10:55:53;;;;;;;8.00;4.17;;;3.10;99.90;;;;;;5011020;28;20507;-48
2022/01/21 10:58:20;;;;;;;7.20;3.40;;;2.50;99.90;;;;;;5006363;28;20987;-47
2022/01/21 11:00:58;;;;;;;8.77;2.90;;;2.70;95.50;;;;;;5004595;28;20483;-47
2022/01/21 11:03:28;;;;;;;7.83;3.43;;;2.50;79.20;;;;;;5000408;28;20509;-46
2022/01/21 11:06:10;;;;;;;11.30;4.50;;;2.80;82.20;;;;;;5001107;28;20488;-47
2022/01/21 11:08:37;;;;;;;10.40;3.53;;;2.70;96.30;;;;;;5006882;28;20467;-48
2022/01/21 11:11:04;;;;;;;6.87;3.07;;;2.60;98.10;;;;;;5004695;28;20436;-47
2022/01/21 11:13:40;;;;;;;3.33;2.80;;;3.20;95.80;;;;;;5003057;28;20506;-47
2022/01/21 11:16:15;;;;;;;5.40;2.80;;;2.50;82.50;;;;;;4999480;28;20537;-47
2022/01/21 11:18:56;;;;;;;5.20;2.93;;;2.40;77.30;;;;;;5005168;28;20567;-50
2022/01/21 11:21:23;;;;;;;5.67;2.77;;;2.50;78.70;;;;;;5007914;28;20487;-51
2022/01/21 11:23:49;;;;;;;9.20;3.10;;;2.60;86.30;;;;;;5010998;28;20487;-50
2022/01/21 11:26:18;;;;;;;11.10;3.27;;;2.30;81.50;;;;;;5011736;28;20500;-50
2022/01/21 11:28:48;;;;;;;16.93;3.13;;;2.40;74.70;;;;;;5001828;28;20468;-51
2022/01/21 11:31:17;;;;;;;6.00;2.80;;;2.70;75.80;;;;;;5001787;28;20463;-51
2022/01/21 11:33:44;;;;;;;4.40;2.50;;;3.60;99.90;;;;;;5011859;28;20475;-50
2022/01/21 11:36:12;;;;;;;22.63;5.00;;;3.20;99.90;;;;;;5006051;28;20523;-50
2022/01/21 11:38:43;;;;;;;4.30;2.70;;;2.80;99.90;;;;;;4994503;28;20464;-51
2022/01/21 11:41:11;;;;;;;5.83;2.73;;;2.90;99.90;;;;;;5010141;28;20971;-51
2022/01/21 11:43:39;;;;;;;5.70;2.80;;;3.10;99.90;;;;;;5002271;28;20590;-50
2022/01/21 11:46:24;;;;;;;7.63;2.50;;;3.00;96.60;;;;;;5004525;28;20483;-51
2022/01/21 11:48:53;;;;;;;2.93;2.30;;;3.50;99.90;;;;;;5008875;28;20459;-51
2022/01/21 11:51:27;;;;;;;5.80;3.13;;;3.00;99.90;;;;;;5009430;28;20985;-50
2022/01/21 11:53:56;;;;;;;6.13;2.90;;;3.20;99.90;;;;;;5006621;28;20851;-50
2022/01/21 11:56:32;;;;;;;4.03;2.33;;;3.00;99.90;;;;;;5007081;28;20522;-56
2022/01/21 11:59:08;;;;;;;6.70;2.87;;;3.00;95.50;;;;;;5002339;28;20465;-56
2022/01/21 12:01:39;;;;;;;8.20;3.27;;;2.90;99.90;;;;;;5006687;28;20514;-55
2022/01/21 12:04:05;;;;;;;7.13;2.57;;;3.00;93.00;;;;;;5003532;28;20976;-56
2022/01/21 12:06:35;;;;;;;8.43;3.27;;;3.00;98.60;;;;;;5004142;28;20507;-55
2022/01/21 12:09:04;;;;;;;9.23;3.17;;;3.00;95.70;;;;;;5003933;28;20582;-55
2022/01/21 12:11:35;;;;;;;7.57;2.50;;;3.00;99.90;;;;;;5006889;28;20495;-54
2022/01/21 12:14:05;;;;;;;7.13;2.60;;;3.20;99.90;;;;;;5005687;28;20492;-56
2022/01/21 12:16:54;;;;;;;8.97;2.93;;;3.20;99.90;;;;;;5002967;28;20479;-56
2022/01/21 12:19:32;;;;;;;7.70;2.33;;;3.30;99.90;;;;;;5004517;28;21360;-56
2022/01/21 12:22:11;;;;;;;3.70;2.30;;;4.60;99.90;;;;;;5003289;28;20590;-55
2022/01/21 12:24:51;;;;;;;2.53;2.00;;;6.60;99.90;;;;;;5006207;28;20459;-56
2022/01/21 12:27:19;;;;;;;8.97;2.83;;;7.10;99.90;;;;;;5005102;28;20515;-55
2022/01/21 12:29:46;;;;;;;3.90;2.37;;;7.20;99.90;;;;;;5002425;28;20491;-56
2022/01/21 12:32:22;;;;;;;6.20;2.30;;;7.20;99.90;;;;;;5006369;28;20459;-57
2022/01/21 12:35:18;;;;;;;8.37;2.67;;;8.60;99.90;;;;;;5004741;28;20463;-55
2022/01/21 12:40:59;;;;;;;3.67;1.67;;;7.60;99.90;;;;;;5004901;28;20550;-55
2022/01/21 12:43:41;;;;;;;4.87;2.50;;;6.60;99.90;;;;;;5003550;28;20471;-56
2022/01/21 12:46:09;;;;;;;6.83;2.30;;;6.90;99.90;;;;;;5005925;28;20507;-56
2022/01/21 12:48:37;;;;;;;7.20;2.70;;;5.00;99.90;;;;;;5004844;28;20491;-55
2022/01/21 12:51:15;;;;;;;8.77;3.23;;;5.30;99.90;;;;;;5003880;28;20463;-56
2022/01/21 12:56:42;;;;;;;6.70;2.90;;;4.60;99.90;;;;;;5005052;28;20482;-56
2022/01/21 12:59:12;;;;;;;5.00;3.30;;;4.50;99.90;;;;;;5003576;28;20474;-56
2022/01/21 13:01:39;;;;;;;3.33;2.00;;;4.20;99.90;;;;;;5003597;28;20558;-56
2022/01/21 13:04:14;;;;;;;6.53;4.30;;;3.60;99.90;;;;;;5004529;28;20464;-54
2022/01/21 13:06:52;;;;;;;5.10;2.30;;;3.50;99.90;;;;;;5004585;28;20573;-56
2022/01/21 13:09:32;;;;;;;6.70;3.37;;;3.30;99.90;;;;;;5002811;28;20912;-56
2022/01/21 13:12:04;;;;;;;11.20;2.80;;;3.40;99.90;;;;;;5004984;28;20484;-56
2022/01/21 13:14:35;;;;;;;4.77;3.43;;;3.50;99.90;;;;;;5000716;28;21041;-55
2022/01/21 13:17:05;;;;;;;19.53;4.57;;;4.00;99.90;;;;;;5004875;28;20487;-57
2022/01/21 13:19:42;;;;;;;6.00;3.23;;;4.30;99.90;;;;;;5001891;28;20493;-55
2022/01/21 13:22:15;;;;;;;6.53;2.27;;;4.70;99.90;;;;;;5004365;28;20574;-56
2022/01/21 13:24:58;;;;;;;4.30;2.63;;;4.80;99.90;;;;;;5004129;28;21076;-55
2022/01/21 13:27:26;;;;;;;6.53;3.93;;;4.40;99.90;;;;;;5003327;28;20483;-56
2022/01/21 13:29:58;;;;;;;6.63;2.73;;;4.10;99.90;;;;;;5000626;28;20476;-56
2022/01/21 13:32:25;;;;;;;3.37;1.97;;;3.80;99.90;;;;;;5004789;28;20541;-56
2022/01/21 13:34:52;;;;;;;6.50;2.27;;;4.40;99.90;;;;;;5001125;28;20550;-56
2022/01/21 13:37:19;;;;;;;6.93;2.13;;;4.40;99.90;;;;;;5003067;28;20528;-56
2022/01/21 13:39:48;;;;;;;7.13;2.43;;;5.20;99.90;;;;;;5000867;28;20464;-56
2022/01/21 13:42:20;;;;;;;7.13;3.00;;;5.40;99.90;;;;;;5009043;28;20512;-56